Decoded Metar for CZFA (FARO in YT, CANADA) (IATA:ZFA) | Meteo·Mobile Aviation Weather
aviador You're here:

CZFA Decoded Metar

FARO in YT, CANADA
Report Time2019-01-21 23:00:00
UTC Time2019-01-21 23:50:45
Flight Rules vfr VFR
Wind150° at 03 kt
W.Decomp.*RWY 09: 2.5 kt HW 1.7 kt RCW
W.Rank150° ranks 8
Current wind is below 150° avg. (6.6)
Visibility9999 m
Phenomena:Light Snow
Clouds:Overcast 045 Hf
Expected CloudBase > 1,600 ft AGL from Temp-Dew spread
Ceiling4,500 ft
Temp-22°C (ISA -32)
Dew Point-26°C (70% RH)
AAT-26.8°C
QNH1011 hPa
Density Alt-1,690 ft
Elevation2,352 ft
Report Wrong Elevation
Raw Report
CZFA 212300Z 15003KT 060V180 30SM -SN OVC045 M22/M26 A2985 RMK SC8
CLIMAT -22.2/-25.3/TRCM/TRMWE LAST STFD OBS/NXT 221500Z
SLP191=

Extra information for CZFA:More info

Metar Taf Metar & Taf Last 4 Metars F.Rules Stats Wind Profile Meteogram Temp Stats Airport Information Weather charts Add Link Nearby VenuesMetar ALERT Operation Metar Decoded Social comments